Pine Village, Indiana
Current Conditions -  °F | °C
As of 9:54 PM on Friday 21 Nov 2014 (Local Time) from KLAF Reporting Station
Overcast Overcast  
Wind Chill: 21°   Ceiling: 4500
Heat Index: 29°   Visibility: 10mi
Dew Point: 13°   Wind: 8mph
Humidity: 51%   Direction: 150°SSE
Pressure: 30.32"   Gusts: NA
Location:  40.45°N, 87.25°W
Report Text: KLAF 220254Z AUTO 15007KT 10SM OVC045 M02/M11 A3032 RMK AO2 SLP276 T10171106 58017 TSNO
Loading
Personal Weather Stations






























Interactive Weather Map New forecast layout! Learn more

10-Day Weather Forecast

Advertisements
Track Severe Weather on mobile